Time;durP1;ratioP1;P1;durP2;ratioP2;P2;SDS_P1;SDS_P2;PMS_P1;PMS_P2;Temp;Humidity;BMP_temperature;BMP_pressure;BME280_temperature;BME280_humidity;BME280_pressure;Samples;Min_cycle;Max_cycle;Signal;HPM_P1;HPM_P2
2022/05/15 00:02:04;;;;;;;7.25;2.47;;;;;;;;;;4951648;29;20911;-60
2022/05/15 00:04:31;;;;;;;4.82;3.15;;;;;;;;;;4948811;28;20215;-61
2022/05/15 00:06:59;;;;;;;8.50;3.10;;;;;;;;;;4961325;28;20231;-60
2022/05/15 00:09:26;;;;;;;4.07;2.95;;;;;;;;;;4963279;28;20751;-60
2022/05/15 00:11:53;;;;;;;4.22;3.83;;;;;;;;;;4951780;29;20689;-60
2022/05/15 00:14:20;;;;;;;2.63;2.53;;;;;;;;;;4952511;29;20274;-60
2022/05/15 00:16:47;;;;;;;6.35;3.13;;;;;;;;;;4951454;29;20606;-60
2022/05/15 00:19:14;;;;;;;3.40;3.20;;;;;;;;;;4952367;29;20224;-59
2022/05/15 00:21:42;;;;;;;3.58;2.72;;;;;;;;;;4951755;29;20282;-60
2022/05/15 00:24:10;;;;;;;4.30;3.22;;;;;;;;;;4951866;28;20611;-60
2022/05/15 00:26:37;;;;;;;3.45;2.92;;;;;;;;;;4951494;29;20227;-60
2022/05/15 00:29:04;;;;;;;3.40;3.20;;;;;;;;;;4951984;29;20215;-59
2022/05/15 00:31:32;;;;;;;3.70;2.80;;;;;;;;;;4951541;29;20285;-58
2022/05/15 00:33:59;;;;;;;3.53;3.33;;;;;;;;;;4951956;29;20720;-58
2022/05/15 00:36:26;;;;;;;4.15;2.97;;;;;;;;;;4951446;29;20298;-59
2022/05/15 00:38:53;;;;;;;3.05;2.85;;;;;;;;;;4952063;29;20267;-60
2022/05/15 00:41:22;;;;;;;2.80;2.58;;;;;;;;;;4951657;29;20207;-59
2022/05/15 00:43:50;;;;;;;2.97;2.72;;;;;;;;;;4951824;29;20221;-59
2022/05/15 00:46:19;;;;;;;10.20;2.80;;;;;;;;;;4951317;29;20812;-59
2022/05/15 00:48:47;;;;;;;5.20;2.90;;;;;;;;;;4951772;29;20210;-60
2022/05/15 00:51:17;;;;;;;3.78;3.00;;;;;;;;;;4951386;29;20214;-60
2022/05/15 00:53:44;;;;;;;4.57;2.85;;;;;;;;;;4951533;28;20207;-59
2022/05/15 00:56:13;;;;;;;3.40;2.55;;;;;;;;;;4951463;29;20564;-59
2022/05/15 00:58:43;;;;;;;3.13;2.80;;;;;;;;;;4951351;29;20207;-59
2022/05/15 01:01:10;;;;;;;4.25;2.50;;;;;;;;;;4951302;29;20210;-60
2022/05/15 01:03:37;;;;;;;2.70;2.50;;;;;;;;;;4951306;29;20835;-60
2022/05/15 01:06:04;;;;;;;3.00;2.60;;;;;;;;;;4951356;29;20701;-60
2022/05/15 01:08:31;;;;;;;2.55;2.35;;;;;;;;;;4951174;29;20768;-59
2022/05/15 01:11:01;;;;;;;5.00;2.45;;;;;;;;;;4951202;29;20218;-59
2022/05/15 01:13:30;;;;;;;3.95;2.40;;;;;;;;;;4951224;29;20235;-60
2022/05/15 01:15:58;;;;;;;3.83;2.42;;;;;;;;;;4951347;28;20207;-60
2022/05/15 01:18:27;;;;;;;4.67;2.50;;;;;;;;;;4954437;29;20265;-60
2022/05/15 01:20:55;;;;;;;4.55;2.78;;;;;;;;;;4955312;29;20214;-60
2022/05/15 01:23:22;;;;;;;4.97;2.95;;;;;;;;;;4955111;28;20210;-60
2022/05/15 01:25:50;;;;;;;2.80;2.70;;;;;;;;;;4955230;29;20210;-60
2022/05/15 01:28:19;;;;;;;2.65;2.45;;;;;;;;;;4954852;29;20222;-59
2022/05/15 01:30:48;;;;;;;2.63;2.40;;;;;;;;;;4954689;29;20218;-59
2022/05/15 01:33:15;;;;;;;4.38;3.38;;;;;;;;;;4954941;29;20207;-60
2022/05/15 01:35:42;;;;;;;6.28;2.55;;;;;;;;;;4955194;29;20215;-60
2022/05/15 01:38:10;;;;;;;3.42;3.00;;;;;;;;;;4954371;29;20207;-59
2022/05/15 01:40:38;;;;;;;2.93;2.83;;;;;;;;;;4955104;29;20237;-58
2022/05/15 01:43:06;;;;;;;5.82;3.10;;;;;;;;;;4954314;29;20211;-60
2022/05/15 01:45:34;;;;;;;2.75;2.60;;;;;;;;;;4954907;29;20219;-59
2022/05/15 01:48:01;;;;;;;3.50;3.28;;;;;;;;;;4954487;29;20595;-59
2022/05/15 01:50:28;;;;;;;5.80;3.40;;;;;;;;;;4954754;29;20270;-60
2022/05/15 01:52:55;;;;;;;3.35;3.03;;;;;;;;;;4954485;29;20554;-59
2022/05/15 01:55:23;;;;;;;3.00;2.90;;;;;;;;;;4954916;28;20226;-59
2022/05/15 01:57:50;;;;;;;2.97;2.78;;;;;;;;;;4953906;29;20203;-60
2022/05/15 02:00:20;;;;;;;3.08;2.90;;;;;;;;;;4954874;29;20563;-59
2022/05/15 02:02:47;;;;;;;5.05;3.28;;;;;;;;;;4953888;29;20203;-60
2022/05/15 02:05:14;;;;;;;3.28;3.08;;;;;;;;;;4953966;29;20207;-59
2022/05/15 02:07:41;;;;;;;3.22;3.03;;;;;;;;;;4953332;29;20298;-60
2022/05/15 02:10:10;;;;;;;3.40;3.08;;;;;;;;;;4953462;29;20278;-59
2022/05/15 02:12:38;;;;;;;3.10;2.90;;;;;;;;;;4953629;29;20269;-60
2022/05/15 02:15:06;;;;;;;4.05;3.42;;;;;;;;;;4953427;29;20207;-59
2022/05/15 02:17:33;;;;;;;3.10;3.00;;;;;;;;;;4953688;29;20321;-59
2022/05/15 02:20:00;;;;;;;3.90;3.33;;;;;;;;;;4953416;29;20270;-59
2022/05/15 02:22:27;;;;;;;5.03;3.20;;;;;;;;;;4953798;29;20214;-59
2022/05/15 02:24:55;;;;;;;3.83;3.53;;;;;;;;;;4953007;28;20686;-59
2022/05/15 02:27:22;;;;;;;2.90;2.80;;;;;;;;;;4953595;28;20227;-59
2022/05/15 02:29:50;;;;;;;4.60;3.30;;;;;;;;;;4953049;29;20682;-59
2022/05/15 02:32:17;;;;;;;3.77;3.20;;;;;;;;;;4953399;29;20250;-59
2022/05/15 02:34:44;;;;;;;3.13;2.93;;;;;;;;;;4953197;29;20211;-59
2022/05/15 02:37:11;;;;;;;3.92;3.35;;;;;;;;;;4953077;29;20245;-59
2022/05/15 02:39:38;;;;;;;3.45;3.25;;;;;;;;;;4953035;29;20211;-60
2022/05/15 02:42:06;;;;;;;6.53;3.05;;;;;;;;;;4953054;29;20230;-59
2022/05/15 02:44:33;;;;;;;3.70;3.40;;;;;;;;;;4953048;29;20223;-60
2022/05/15 02:47:01;;;;;;;3.40;3.20;;;;;;;;;;4952953;29;20286;-60
2022/05/15 02:52:13;;;;;;;4.78;2.80;;;;;;;;;;4953271;29;20209;-59
2022/05/15 02:54:40;;;;;;;4.22;3.83;;;;;;;;;;4952477;28;20212;-60
2022/05/15 02:57:08;;;;;;;3.63;3.42;;;;;;;;;;4953170;29;20212;-59
2022/05/15 02:59:37;;;;;;;3.60;3.30;;;;;;;;;;4944735;29;20223;-59
2022/05/15 03:02:06;;;;;;;4.00;3.67;;;;;;;;;;4952733;29;20225;-60
2022/05/15 03:04:33;;;;;;;4.00;3.40;;;;;;;;;;4952811;29;20208;-59
2022/05/15 03:07:00;;;;;;;4.25;3.70;;;;;;;;;;4952318;29;20291;-59
2022/05/15 03:09:27;;;;;;;3.83;3.37;;;;;;;;;;4952732;29;20270;-59
2022/05/15 03:11:54;;;;;;;4.00;3.67;;;;;;;;;;4953203;29;20210;-59
2022/05/15 03:14:21;;;;;;;3.85;3.50;;;;;;;;;;4952661;29;20214;-60
2022/05/15 03:16:48;;;;;;;4.33;3.40;;;;;;;;;;4955579;28;20294;-60
2022/05/15 03:19:16;;;;;;;5.53;3.83;;;;;;;;;;4953317;29;20220;-60
2022/05/15 03:21:43;;;;;;;7.78;3.92;;;;;;;;;;4952415;29;20199;-60
2022/05/15 03:24:12;;;;;;;5.00;3.60;;;;;;;;;;4953064;28;20222;-60
2022/05/15 03:26:40;;;;;;;6.80;3.67;;;;;;;;;;4952899;29;20207;-60
2022/05/15 03:29:07;;;;;;;4.07;3.50;;;;;;;;;;4952527;29;20262;-58
2022/05/15 03:31:35;;;;;;;4.23;3.87;;;;;;;;;;4952711;29;20211;-57
2022/05/15 03:34:02;;;;;;;4.40;4.07;;;;;;;;;;4952870;29;20203;-57
2022/05/15 03:36:31;;;;;;;4.70;4.25;;;;;;;;;;4952729;29;20215;-58
2022/05/15 03:38:58;;;;;;;4.50;3.90;;;;;;;;;;4952751;28;20207;-57
2022/05/15 03:41:25;;;;;;;3.67;3.47;;;;;;;;;;4952196;29;20215;-57
2022/05/15 03:43:52;;;;;;;7.30;3.43;;;;;;;;;;4952303;29;20254;-58
2022/05/15 03:46:19;;;;;;;4.00;3.70;;;;;;;;;;4952950;29;20270;-61
2022/05/15 03:48:46;;;;;;;7.33;3.70;;;;;;;;;;4952222;29;20286;-60
2022/05/15 03:51:14;;;;;;;6.07;3.80;;;;;;;;;;4952830;29;20211;-60
2022/05/15 03:53:43;;;;;;;5.70;4.17;;;;;;;;;;4951918;28;20617;-61
2022/05/15 03:56:10;;;;;;;3.73;3.47;;;;;;;;;;4952449;29;20214;-61
2022/05/15 03:58:38;;;;;;;4.17;3.80;;;;;;;;;;4952042;29;20215;-60
2022/05/15 04:01:06;;;;;;;8.00;4.40;;;;;;;;;;4952309;29;20219;-60
2022/05/15 04:03:33;;;;;;;5.83;3.63;;;;;;;;;;4952127;29;20211;-60
2022/05/15 04:06:01;;;;;;;4.10;3.80;;;;;;;;;;4950208;29;20234;-60
2022/05/15 04:08:28;;;;;;;4.23;3.93;;;;;;;;;;4951410;29;20246;-59
2022/05/15 04:10:56;;;;;;;4.60;3.70;;;;;;;;;;4952117;29;20294;-60
2022/05/15 04:13:24;;;;;;;4.80;3.90;;;;;;;;;;4951965;29;20220;-60
2022/05/15 04:15:51;;;;;;;4.50;4.10;;;;;;;;;;4952003;29;20215;-60
2022/05/15 04:18:18;;;;;;;4.57;4.27;;;;;;;;;;4951885;29;20210;-60
2022/05/15 04:20:45;;;;;;;3.90;3.70;;;;;;;;;;4952215;29;20211;-60
2022/05/15 04:23:12;;;;;;;5.40;3.90;;;;;;;;;;4951945;28;20222;-59
2022/05/15 04:25:39;;;;;;;6.00;4.43;;;;;;;;;;4951904;29;20242;-60
2022/05/15 04:28:07;;;;;;;5.17;4.73;;;;;;;;;;4951697;29;20227;-60
2022/05/15 04:30:34;;;;;;;5.50;3.83;;;;;;;;;;4951869;29;20266;-60
2022/05/15 04:33:02;;;;;;;4.23;3.93;;;;;;;;;;4951724;29;20215;-60
2022/05/15 04:35:29;;;;;;;4.27;3.97;;;;;;;;;;4952029;29;20269;-59
2022/05/15 04:37:56;;;;;;;6.87;3.83;;;;;;;;;;4951798;29;20211;-59
2022/05/15 04:40:23;;;;;;;6.87;3.93;;;;;;;;;;4951363;29;20210;-60
2022/05/15 04:42:50;;;;;;;7.27;4.20;;;;;;;;;;4951138;29;20204;-59
2022/05/15 04:45:19;;;;;;;4.53;4.20;;;;;;;;;;4951979;29;20234;-60
2022/05/15 04:47:46;;;;;;;3.93;3.73;;;;;;;;;;4951283;29;20223;-59
2022/05/15 04:50:13;;;;;;;3.73;3.53;;;;;;;;;;4951955;29;20211;-59
2022/05/15 04:52:40;;;;;;;4.27;3.90;;;;;;;;;;4951244;28;20211;-59
2022/05/15 04:55:08;;;;;;;4.23;3.70;;;;;;;;;;4951469;28;20215;-60
2022/05/15 04:57:35;;;;;;;4.53;4.20;;;;;;;;;;4951389;29;20199;-59
2022/05/15 05:00:02;;;;;;;3.67;3.47;;;;;;;;;;4951536;29;20851;-60
2022/05/15 05:02:31;;;;;;;7.87;3.77;;;;;;;;;;4951057;29;20207;-60
2022/05/15 05:04:59;;;;;;;3.73;3.60;;;;;;;;;;4951462;29;20207;-60
2022/05/15 05:07:26;;;;;;;4.30;3.93;;;;;;;;;;4951024;29;20281;-60
2022/05/15 05:09:53;;;;;;;4.00;3.60;;;;;;;;;;4951421;29;20345;-60
2022/05/15 05:12:20;;;;;;;3.93;3.70;;;;;;;;;;4951355;29;20628;-60
2022/05/15 05:14:48;;;;;;;4.20;3.80;;;;;;;;;;4950693;29;20199;-60
2022/05/15 05:17:15;;;;;;;4.70;3.33;;;;;;;;;;4951454;29;20677;-60
2022/05/15 05:19:43;;;;;;;4.03;3.83;;;;;;;;;;4951449;29;20205;-60
2022/05/15 05:22:10;;;;;;;4.80;3.73;;;;;;;;;;4951403;29;20594;-60
2022/05/15 05:24:37;;;;;;;3.17;2.97;;;;;;;;;;4950948;28;20203;-61
2022/05/15 05:27:05;;;;;;;4.25;3.85;;;;;;;;;;4951425;29;20629;-60
2022/05/15 05:29:32;;;;;;;4.53;3.92;;;;;;;;;;4950286;29;20822;-60
2022/05/15 05:31:59;;;;;;;4.25;3.83;;;;;;;;;;4962237;28;20265;-59
2022/05/15 05:34:26;;;;;;;3.80;3.50;;;;;;;;;;4958893;28;20207;-64
2022/05/15 05:36:54;;;;;;;3.45;3.20;;;;;;;;;;4958995;28;20297;-60
2022/05/15 05:39:22;;;;;;;3.50;3.20;;;;;;;;;;4967974;28;20206;-59
2022/05/15 05:41:49;;;;;;;3.58;3.28;;;;;;;;;;4950762;29;20206;-60
2022/05/15 05:44:16;;;;;;;3.20;3.00;;;;;;;;;;4953758;28;20216;-59
2022/05/15 05:46:43;;;;;;;7.18;3.85;;;;;;;;;;4951108;29;20207;-59
2022/05/15 05:49:10;;;;;;;3.45;3.13;;;;;;;;;;4960692;28;20239;-59
2022/05/15 05:51:38;;;;;;;3.83;3.10;;;;;;;;;;4951215;29;20222;-60
2022/05/15 05:54:06;;;;;;;5.72;3.20;;;;;;;;;;4951081;28;20211;-59
2022/05/15 05:56:33;;;;;;;4.68;3.03;;;;;;;;;;4951035;29;20677;-60
2022/05/15 05:59:00;;;;;;;2.25;2.10;;;;;;;;;;4950793;29;20348;-59
2022/05/15 06:01:27;;;;;;;2.90;2.63;;;;;;;;;;4941999;29;20359;-59
2022/05/15 06:06:39;;;;;;;3.90;2.88;;;;;;;;;;4935014;29;20290;-60
2022/05/15 06:09:07;;;;;;;2.80;2.60;;;;;;;;;;4952257;29;20800;-60
2022/05/15 06:11:34;;;;;;;4.53;3.13;;;;;;;;;;4953596;29;20583;-60
2022/05/15 06:14:01;;;;;;;2.50;2.40;;;;;;;;;;4953522;29;20218;-60
2022/05/15 06:16:31;;;;;;;3.58;2.50;;;;;;;;;;4953519;29;20215;-60
2022/05/15 06:18:58;;;;;;;2.80;2.65;;;;;;;;;;4953780;29;20294;-60
2022/05/15 06:21:25;;;;;;;5.47;2.47;;;;;;;;;;4953433;29;20226;-60
2022/05/15 06:23:52;;;;;;;3.00;2.47;;;;;;;;;;4953510;28;20223;-60
2022/05/15 06:26:20;;;;;;;2.70;2.50;;;;;;;;;;4953269;29;20620;-60
2022/05/15 06:28:47;;;;;;;2.92;2.03;;;;;;;;;;4953208;29;20230;-60
2022/05/15 06:31:14;;;;;;;2.28;1.98;;;;;;;;;;4953204;29;20211;-60
2022/05/15 06:33:41;;;;;;;3.13;2.35;;;;;;;;;;4953038;29;20642;-60
2022/05/15 06:36:08;;;;;;;2.40;2.30;;;;;;;;;;4953176;29;20367;-60
2022/05/15 06:38:35;;;;;;;3.42;1.98;;;;;;;;;;4952947;29;20195;-60
2022/05/15 06:41:02;;;;;;;1.90;1.80;;;;;;;;;;4952178;29;20674;-60
2022/05/15 06:43:31;;;;;;;2.35;1.88;;;;;;;;;;4962803;28;20262;-59
2022/05/15 06:45:58;;;;;;;2.22;2.13;;;;;;;;;;4953301;29;20214;-60
2022/05/15 06:48:25;;;;;;;2.00;1.77;;;;;;;;;;4953048;29;20226;-60
2022/05/15 06:50:52;;;;;;;1.85;1.80;;;;;;;;;;4952930;29;20273;-60
2022/05/15 06:53:19;;;;;;;7.63;2.28;;;;;;;;;;4952798;28;20214;-60
2022/05/15 06:58:27;;;;;;;2.38;2.20;;;;;;;;;;4951822;29;20618;-60
2022/05/15 07:00:55;;;;;;;2.55;2.30;;;;;;;;;;4952719;29;20219;-63
2022/05/15 07:03:23;;;;;;;3.53;2.10;;;;;;;;;;4952247;29;20215;-63
2022/05/15 07:05:51;;;;;;;2.20;2.10;;;;;;;;;;4952790;29;20219;-63
2022/05/15 07:08:18;;;;;;;4.13;2.08;;;;;;;;;;4951746;29;20329;-64
2022/05/15 07:10:46;;;;;;;3.05;1.77;;;;;;;;;;4953013;29;20211;-63
2022/05/15 07:13:13;;;;;;;2.10;2.00;;;;;;;;;;4952117;29;20670;-63
2022/05/15 07:15:40;;;;;;;2.03;1.92;;;;;;;;;;4951275;28;20402;-60
2022/05/15 07:18:09;;;;;;;1.70;1.70;;;;;;;;;;4956572;28;20213;-58
2022/05/15 07:20:37;;;;;;;1.88;1.77;;;;;;;;;;4957382;28;20207;-59
2022/05/15 07:23:04;;;;;;;2.00;1.63;;;;;;;;;;4952194;29;21461;-59
2022/05/15 07:25:31;;;;;;;1.83;1.73;;;;;;;;;;4952409;28;20239;-59
2022/05/15 07:27:58;;;;;;;2.38;2.15;;;;;;;;;;4951902;29;20692;-58
2022/05/15 07:30:25;;;;;;;1.85;1.80;;;;;;;;;;4971640;28;20210;-59
2022/05/15 07:32:52;;;;;;;2.35;2.00;;;;;;;;;;4952914;28;20218;-59
2022/05/15 07:35:21;;;;;;;2.50;2.30;;;;;;;;;;4952054;29;20258;-59
2022/05/15 07:37:48;;;;;;;2.17;1.95;;;;;;;;;;4951772;29;20218;-58
2022/05/15 07:40:15;;;;;;;2.80;2.10;;;;;;;;;;4970956;28;20210;-59
2022/05/15 07:42:43;;;;;;;3.30;2.15;;;;;;;;;;4953048;28;20211;-60
2022/05/15 07:45:10;;;;;;;1.80;1.70;;;;;;;;;;4949686;29;20211;-60
2022/05/15 07:47:38;;;;;;;2.45;1.60;;;;;;;;;;4950699;29;20207;-61
2022/05/15 07:50:05;;;;;;;6.15;2.17;;;;;;;;;;4951218;29;20223;-59
2022/05/15 07:52:34;;;;;;;2.17;2.08;;;;;;;;;;4951193;29;20203;-60
2022/05/15 07:55:01;;;;;;;2.35;2.10;;;;;;;;;;4951377;28;20618;-59
2022/05/15 07:57:28;;;;;;;2.58;2.47;;;;;;;;;;4951209;29;20215;-60
2022/05/15 07:59:56;;;;;;;2.45;1.95;;;;;;;;;;4950644;29;20228;-60
2022/05/15 08:02:23;;;;;;;5.00;2.15;;;;;;;;;;4953519;28;20211;-62
2022/05/15 08:10:17;;;;;;;4.20;2.22;;;;;;;;;;4936470;29;20329;-60
2022/05/15 08:12:52;;;;;;;1.88;1.65;;;;;;;;;;4950945;29;20203;-60
2022/05/15 08:15:36;;;;;;;2.13;2.00;;;;;;;;;;4950960;29;20214;-60
2022/05/15 08:23:37;;;;;;;2.50;2.20;;;;;;;;;;4950507;28;20209;-61
2022/05/15 08:26:06;;;;;;;2.83;2.30;;;;;;;;;;4950310;28;20214;-61
2022/05/15 08:28:33;;;;;;;2.30;2.10;;;;;;;;;;4950396;29;20238;-62
2022/05/15 08:31:00;;;;;;;2.10;2.00;;;;;;;;;;4950585;29;20559;-62
2022/05/15 08:33:27;;;;;;;1.65;1.65;;;;;;;;;;4950594;29;20286;-60
2022/05/15 08:35:54;;;;;;;3.25;2.20;;;;;;;;;;4950504;29;20659;-59
2022/05/15 08:38:21;;;;;;;3.33;1.90;;;;;;;;;;4950878;29;20636;-59
2022/05/15 08:40:54;;;;;;;2.47;2.10;;;;;;;;;;4951107;29;20207;-62
2022/05/15 08:43:24;;;;;;;2.05;1.95;;;;;;;;;;4951097;29;20207;-62
2022/05/15 08:45:55;;;;;;;2.20;2.00;;;;;;;;;;4951055;29;20685;-63
2022/05/15 08:48:22;;;;;;;2.63;1.95;;;;;;;;;;4950887;29;20207;-63
2022/05/15 08:50:50;;;;;;;3.25;1.83;;;;;;;;;;4951159;29;20237;-62
2022/05/15 08:53:22;;;;;;;2.13;2.03;;;;;;;;;;4950765;28;20690;-64
2022/05/15 08:55:51;;;;;;;2.13;2.03;;;;;;;;;;4951045;29;20211;-62
2022/05/15 08:58:23;;;;;;;2.13;1.83;;;;;;;;;;4950816;29;20219;-61
2022/05/15 09:00:51;;;;;;;2.55;2.10;;;;;;;;;;4950824;29;20225;-61
2022/05/15 09:03:19;;;;;;;2.13;2.08;;;;;;;;;;4950812;29;20243;-62
2022/05/15 09:05:51;;;;;;;2.45;2.13;;;;;;;;;;4950526;29;20219;-62
2022/05/15 09:08:31;;;;;;;2.55;2.40;;;;;;;;;;4950437;29;20255;-62
2022/05/15 09:11:02;;;;;;;1.90;1.80;;;;;;;;;;4951041;29;20214;-61
2022/05/15 09:13:32;;;;;;;1.63;1.63;;;;;;;;;;4950488;29;20211;-61
2022/05/15 09:16:00;;;;;;;2.95;2.03;;;;;;;;;;4950634;29;20219;-61
2022/05/15 09:18:27;;;;;;;1.70;1.60;;;;;;;;;;4950479;29;20621;-61
2022/05/15 09:21:00;;;;;;;2.50;1.85;;;;;;;;;;4950537;29;20249;-61
2022/05/15 09:23:29;;;;;;;3.97;2.13;;;;;;;;;;4950237;28;20214;-61
2022/05/15 09:25:57;;;;;;;1.70;1.70;;;;;;;;;;4950486;29;20211;-61
2022/05/15 09:28:27;;;;;;;2.80;2.60;;;;;;;;;;4950432;29;20214;-62
2022/05/15 09:30:56;;;;;;;1.85;1.85;;;;;;;;;;4950480;29;20325;-62
2022/05/15 09:33:24;;;;;;;8.18;1.70;;;;;;;;;;4950830;29;20215;-61
2022/05/15 09:35:51;;;;;;;1.58;1.58;;;;;;;;;;4950299;29;20581;-62
2022/05/15 09:38:30;;;;;;;1.88;1.77;;;;;;;;;;4951521;28;20214;-63
2022/05/15 09:43:52;;;;;;;1.98;1.88;;;;;;;;;;4954095;29;20733;-61
2022/05/15 09:46:20;;;;;;;2.75;1.55;;;;;;;;;;4954157;29;20405;-61
2022/05/15 09:48:51;;;;;;;1.98;1.88;;;;;;;;;;4954143;29;20218;-61
2022/05/15 09:51:26;;;;;;;1.95;1.85;;;;;;;;;;4954003;29;20225;-61
2022/05/15 09:53:54;;;;;;;1.70;1.60;;;;;;;;;;4953909;28;20301;-62
2022/05/15 09:56:25;;;;;;;1.63;1.63;;;;;;;;;;4953819;29;20218;-61
2022/05/15 09:58:55;;;;;;;2.88;1.95;;;;;;;;;;4953900;29;20211;-61
2022/05/15 10:01:24;;;;;;;1.60;1.50;;;;;;;;;;4954013;29;20207;-61
2022/05/15 10:03:52;;;;;;;2.30;2.03;;;;;;;;;;4953274;29;20282;-61
2022/05/15 10:06:20;;;;;;;1.65;1.55;;;;;;;;;;4953054;29;20713;-61
2022/05/15 10:08:48;;;;;;;2.00;1.90;;;;;;;;;;4952636;29;20674;-63
2022/05/15 10:11:18;;;;;;;4.22;2.00;;;;;;;;;;4952819;29;20218;-63
2022/05/15 10:13:47;;;;;;;2.05;1.73;;;;;;;;;;4952627;29;20262;-60
2022/05/15 10:16:20;;;;;;;3.20;1.65;;;;;;;;;;4952903;29;20211;-61
2022/05/15 10:18:50;;;;;;;1.67;1.60;;;;;;;;;;4952646;29;20211;-61
2022/05/15 10:21:17;;;;;;;1.67;1.58;;;;;;;;;;4952610;29;20218;-62
2022/05/15 10:23:48;;;;;;;2.00;1.75;;;;;;;;;;4952604;28;20215;-61
2022/05/15 10:26:19;;;;;;;2.28;1.70;;;;;;;;;;4952691;29;20215;-61
2022/05/15 10:28:49;;;;;;;3.13;1.88;;;;;;;;;;4952317;29;20297;-61
2022/05/15 10:31:20;;;;;;;2.40;1.60;;;;;;;;;;4952495;29;20222;-61
2022/05/15 10:33:48;;;;;;;2.60;2.47;;;;;;;;;;4952420;29;20215;-61
2022/05/15 10:36:24;;;;;;;1.95;1.65;;;;;;;;;;4952312;29;20211;-61
2022/05/15 10:38:57;;;;;;;3.88;2.15;;;;;;;;;;4952754;29;20677;-62
2022/05/15 10:41:26;;;;;;;1.50;1.50;;;;;;;;;;4953184;29;20215;-61
2022/05/15 10:43:58;;;;;;;2.25;1.70;;;;;;;;;;4952967;29;20219;-62
2022/05/15 10:46:30;;;;;;;2.08;1.98;;;;;;;;;;4952877;29;20213;-61
2022/05/15 10:49:02;;;;;;;4.20;3.80;;;;;;;;;;4952528;28;20293;-62
2022/05/15 10:51:34;;;;;;;2.90;2.80;;;;;;;;;;4952225;29;20223;-61
2022/05/15 10:59:46;;;;;;;2.55;1.20;;;;;;;;;;4952885;29;20278;-62
2022/05/15 11:02:35;;;;;;;1.90;1.35;;;;;;;;;;4953002;29;20211;-62
2022/05/15 11:05:09;;;;;;;2.10;1.50;;;;;;;;;;4952807;29;20223;-61
2022/05/15 11:07:41;;;;;;;1.92;1.63;;;;;;;;;;4952721;29;20277;-62
2022/05/15 11:10:10;;;;;;;1.83;1.30;;;;;;;;;;4952473;29;20235;-62
2022/05/15 11:12:42;;;;;;;1.20;1.20;;;;;;;;;;4952372;29;20245;-62
2022/05/15 11:15:19;;;;;;;1.48;1.23;;;;;;;;;;4952403;29;20211;-62
2022/05/15 11:17:53;;;;;;;6.75;1.30;;;;;;;;;;4952453;29;20211;-61
2022/05/15 11:20:21;;;;;;;1.40;1.30;;;;;;;;;;4952335;29;20270;-60
2022/05/15 11:22:50;;;;;;;1.63;1.08;;;;;;;;;;4952124;29;20222;-61
2022/05/15 11:25:20;;;;;;;1.33;1.20;;;;;;;;;;4952196;28;20219;-60
2022/05/15 11:27:49;;;;;;;1.20;1.00;;;;;;;;;;4952427;29;20278;-61
2022/05/15 11:30:19;;;;;;;1.13;1.10;;;;;;;;;;4952172;29;20258;-62
2022/05/15 11:33:01;;;;;;;2.00;1.00;;;;;;;;;;4951982;29;20536;-60
2022/05/15 11:35:30;;;;;;;2.05;1.00;;;;;;;;;;4952244;29;20211;-62
2022/05/15 11:38:08;;;;;;;2.15;1.00;;;;;;;;;;4952034;29;20420;-62
2022/05/15 11:40:37;;;;;;;0.80;0.80;;;;;;;;;;4951972;29;20230;-62
2022/05/15 11:43:23;;;;;;;1.90;1.10;;;;;;;;;;4951857;29;20638;-62
2022/05/15 11:45:50;;;;;;;1.10;1.02;;;;;;;;;;4951852;29;20219;-62
2022/05/15 11:48:22;;;;;;;1.00;0.95;;;;;;;;;;4951846;29;20215;-61
2022/05/15 11:50:55;;;;;;;1.00;1.00;;;;;;;;;;4951865;29;20226;-62
2022/05/15 11:53:26;;;;;;;0.63;0.63;;;;;;;;;;4951884;28;20563;-62
2022/05/15 11:55:53;;;;;;;0.90;0.90;;;;;;;;;;4951545;29;20214;-61
2022/05/15 11:58:30;;;;;;;0.90;0.82;;;;;;;;;;4951582;29;20215;-63
2022/05/15 12:01:02;;;;;;;2.33;1.08;;;;;;;;;;4951132;28;20330;-61
2022/05/15 12:03:42;;;;;;;0.80;0.80;;;;;;;;;;4951707;29;20504;-61
2022/05/15 12:06:10;;;;;;;0.90;0.90;;;;;;;;;;4951551;29;20219;-62
2022/05/15 12:08:38;;;;;;;1.05;1.05;;;;;;;;;;4951355;29;20249;-61
2022/05/15 12:11:27;;;;;;;0.90;0.90;;;;;;;;;;4951294;29;20689;-62
2022/05/15 12:13:55;;;;;;;2.08;1.02;;;;;;;;;;4951361;29;20654;-63
2022/05/15 12:16:24;;;;;;;1.95;0.88;;;;;;;;;;4951436;29;20207;-62
2022/05/15 12:18:58;;;;;;;1.23;1.13;;;;;;;;;;4951349;29;20703;-62
2022/05/15 12:21:31;;;;;;;1.20;1.13;;;;;;;;;;4951326;29;20203;-62
2022/05/15 12:26:48;;;;;;;3.53;0.90;;;;;;;;;;4950096;29;20904;-62
2022/05/15 12:29:24;;;;;;;1.08;0.70;;;;;;;;;;4950896;29;20317;-62
2022/05/15 12:31:52;;;;;;;2.08;0.80;;;;;;;;;;4951844;29;20207;-60
2022/05/15 12:34:23;;;;;;;0.75;0.75;;;;;;;;;;4950910;29;20673;-60
2022/05/15 12:36:54;;;;;;;1.35;0.90;;;;;;;;;;4935383;29;20212;-61
2022/05/15 12:39:23;;;;;;;1.00;0.95;;;;;;;;;;4950679;29;20203;-61
2022/05/15 12:41:50;;;;;;;2.10;0.93;;;;;;;;;;4951255;29;20261;-62
2022/05/15 12:44:30;;;;;;;1.15;1.00;;;;;;;;;;4951571;29;20207;-62
2022/05/15 12:46:58;;;;;;;1.02;1.02;;;;;;;;;;4950916;29;20558;-63
2022/05/15 12:49:31;;;;;;;1.23;0.80;;;;;;;;;;4949078;29;20203;-61
2022/05/15 12:52:09;;;;;;;2.00;1.17;;;;;;;;;;4942726;28;20234;-62
2022/05/15 12:54:36;;;;;;;0.90;0.90;;;;;;;;;;4950420;29;20293;-58
2022/05/15 12:57:06;;;;;;;1.80;1.00;;;;;;;;;;4951277;29;20293;-59
2022/05/15 12:59:36;;;;;;;1.25;1.00;;;;;;;;;;4948430;28;20371;-59
2022/05/15 13:02:18;;;;;;;1.45;1.00;;;;;;;;;;4951316;28;20207;-60
2022/05/15 13:04:48;;;;;;;1.20;1.00;;;;;;;;;;4944108;28;20211;-61
2022/05/15 13:07:15;;;;;;;1.45;0.85;;;;;;;;;;4953195;28;20277;-60
2022/05/15 13:09:43;;;;;;;2.92;1.00;;;;;;;;;;4952192;28;20234;-59
2022/05/15 13:12:14;;;;;;;0.70;0.70;;;;;;;;;;4959534;28;20229;-58
2022/05/15 13:14:46;;;;;;;2.47;0.90;;;;;;;;;;4963053;28;21431;-58
2022/05/15 13:17:14;;;;;;;1.00;1.00;;;;;;;;;;4970380;28;20273;-59
2022/05/15 13:19:43;;;;;;;1.20;1.10;;;;;;;;;;4974434;28;20239;-59
2022/05/15 13:22:13;;;;;;;1.58;1.10;;;;;;;;;;4974343;28;20221;-59
2022/05/15 13:24:41;;;;;;;0.98;0.93;;;;;;;;;;4962576;28;20214;-59
2022/05/15 13:27:08;;;;;;;0.85;0.85;;;;;;;;;;4954855;29;20211;-59
2022/05/15 13:29:37;;;;;;;1.83;0.82;;;;;;;;;;4966423;28;20233;-59
2022/05/15 13:32:05;;;;;;;1.27;0.82;;;;;;;;;;4974218;28;20238;-59
2022/05/15 13:34:33;;;;;;;0.90;0.90;;;;;;;;;;4974324;28;20236;-59
2022/05/15 13:37:01;;;;;;;0.73;0.73;;;;;;;;;;4974073;28;20596;-58
2022/05/15 13:45:07;;;;;;;1.67;1.10;;;;;;;;;;4955116;29;20312;-57
2022/05/15 13:47:34;;;;;;;2.08;0.90;;;;;;;;;;4954463;29;20681;-58
2022/05/15 13:50:02;;;;;;;1.85;0.70;;;;;;;;;;4955134;29;20633;-57
2022/05/15 13:52:31;;;;;;;3.95;1.15;;;;;;;;;;4954270;29;20610;-58
2022/05/15 13:55:00;;;;;;;0.73;0.73;;;;;;;;;;4954662;28;20203;-58
2022/05/15 13:57:28;;;;;;;1.17;1.00;;;;;;;;;;4954590;28;20214;-58
2022/05/15 14:00:01;;;;;;;4.32;0.77;;;;;;;;;;4954404;29;20599;-59
2022/05/15 14:02:29;;;;;;;1.45;0.70;;;;;;;;;;4953700;29;20207;-58
2022/05/15 14:05:11;;;;;;;1.30;1.00;;;;;;;;;;4953998;29;20290;-58
2022/05/15 14:07:40;;;;;;;4.28;1.80;;;;;;;;;;4952176;29;20235;-58
2022/05/15 14:10:18;;;;;;;1.00;1.00;;;;;;;;;;4951965;29;21029;-59
2022/05/15 14:12:48;;;;;;;1.65;0.80;;;;;;;;;;4953758;29;20206;-58
2022/05/15 14:15:32;;;;;;;3.85;1.10;;;;;;;;;;4953030;29;20207;-59
2022/05/15 14:18:01;;;;;;;2.55;1.02;;;;;;;;;;4953252;29;20682;-59
2022/05/15 14:20:29;;;;;;;0.63;0.60;;;;;;;;;;4953463;29;20218;-58
2022/05/15 14:22:56;;;;;;;0.80;0.80;;;;;;;;;;4961172;28;20225;-58
2022/05/15 14:25:25;;;;;;;1.77;0.80;;;;;;;;;;4952819;28;20218;-58
2022/05/15 14:27:52;;;;;;;0.95;0.95;;;;;;;;;;4952369;29;20580;-59
2022/05/15 14:30:19;;;;;;;1.83;0.85;;;;;;;;;;4953139;29;20357;-59
2022/05/15 14:32:51;;;;;;;0.73;0.73;;;;;;;;;;4952947;29;20219;-59
2022/05/15 14:35:20;;;;;;;2.40;1.02;;;;;;;;;;4954362;28;20591;-58
2022/05/15 14:37:47;;;;;;;3.30;1.08;;;;;;;;;;4952352;29;20203;-59
2022/05/15 14:40:14;;;;;;;1.38;1.02;;;;;;;;;;4953124;29;20216;-58
2022/05/15 14:42:42;;;;;;;0.70;0.70;;;;;;;;;;4951570;29;20214;-58
2022/05/15 14:45:17;;;;;;;0.80;0.80;;;;;;;;;;4962937;28;20234;-58
2022/05/15 14:47:44;;;;;;;1.70;1.08;;;;;;;;;;4966559;28;20653;-58
2022/05/15 14:50:11;;;;;;;1.95;0.85;;;;;;;;;;4953011;29;20254;-57
2022/05/15 14:52:39;;;;;;;0.73;0.73;;;;;;;;;;4951888;29;20666;-58
2022/05/15 14:55:07;;;;;;;2.28;0.70;;;;;;;;;;4952112;28;20313;-58
2022/05/15 14:57:34;;;;;;;1.20;0.80;;;;;;;;;;4949487;29;20209;-58
2022/05/15 15:00:05;;;;;;;1.08;0.88;;;;;;;;;;4964422;28;20215;-58
2022/05/15 15:02:34;;;;;;;1.08;1.08;;;;;;;;;;4963217;28;20290;-59
2022/05/15 15:05:01;;;;;;;1.92;1.10;;;;;;;;;;4952379;29;20231;-59
2022/05/15 15:07:28;;;;;;;0.85;0.85;;;;;;;;;;4952101;29;20258;-59
2022/05/15 15:09:55;;;;;;;0.82;0.82;;;;;;;;;;4951579;29;20250;-59
2022/05/15 15:12:24;;;;;;;0.88;0.82;;;;;;;;;;4951947;29;20231;-59
2022/05/15 15:14:51;;;;;;;1.08;0.90;;;;;;;;;;4950312;29;20200;-60
2022/05/15 15:17:19;;;;;;;0.70;0.70;;;;;;;;;;4950587;29;20211;-59
2022/05/15 15:19:46;;;;;;;1.33;0.93;;;;;;;;;;4951148;29;20218;-59
2022/05/15 15:22:13;;;;;;;0.90;0.90;;;;;;;;;;4956213;28;20229;-61
2022/05/15 15:24:40;;;;;;;0.80;0.80;;;;;;;;;;4958347;28;20215;-61
2022/05/15 15:27:07;;;;;;;1.23;1.23;;;;;;;;;;4952150;29;20211;-61
2022/05/15 15:29:34;;;;;;;1.40;1.00;;;;;;;;;;4952181;28;20202;-60